Time;durP1;ratioP1;P1;durP2;ratioP2;P2;SDS_P1;SDS_P2;PMS_P1;PMS_P2;Temp;Humidity;BMP_temperature;BMP_pressure;BME280_temperature;BME280_humidity;BME280_pressure;Samples;Min_cycle;Max_cycle;Signal;HPM_P1;HPM_P2
2022/08/21 00:00:11;;;;;;;11.23;5.80;;;18.50;94.70;;;;;;5040735;28;20018;-81
2022/08/21 00:02:37;;;;;;;11.55;6.22;;;18.50;94.70;;;;;;5040752;28;20026;-81
2022/08/21 00:05:03;;;;;;;8.90;5.70;;;18.40;94.60;;;;;;5034683;28;20025;-81
2022/08/21 00:07:29;;;;;;;9.52;5.38;;;18.40;94.70;;;;;;5022779;28;20481;-80
2022/08/21 00:09:56;;;;;;;9.48;5.90;;;18.40;94.70;;;;;;5035408;28;20458;-80
2022/08/21 00:12:22;;;;;;;10.27;5.53;;;18.30;94.70;;;;;;5026532;28;20113;-80
2022/08/21 00:14:48;;;;;;;10.32;5.55;;;18.30;94.70;;;;;;5051330;28;20055;-80
2022/08/21 00:17:14;;;;;;;8.95;6.20;;;18.20;94.80;;;;;;5031759;28;20507;-81
2022/08/21 00:19:40;;;;;;;10.35;5.57;;;18.20;94.90;;;;;;5032100;28;20028;-81
2022/08/21 00:22:05;;;;;;;8.85;5.50;;;18.20;95.00;;;;;;5034825;28;20474;-80
2022/08/21 00:24:31;;;;;;;8.60;5.63;;;18.20;95.00;;;;;;5034976;28;20349;-81
2022/08/21 00:26:58;;;;;;;13.25;6.65;;;18.20;95.00;;;;;;5029259;28;20041;-81
2022/08/21 00:29:24;;;;;;;17.02;7.13;;;18.10;94.90;;;;;;5055519;28;20033;-81
2022/08/21 00:31:50;;;;;;;11.93;6.57;;;18.10;95.00;;;;;;5034931;28;20516;-81
2022/08/21 00:34:15;;;;;;;10.65;6.43;;;18.10;95.10;;;;;;5037320;28;20026;-81
2022/08/21 00:36:41;;;;;;;14.82;6.90;;;18.20;95.20;;;;;;5031726;28;20533;-81
2022/08/21 00:39:08;;;;;;;9.82;5.78;;;18.20;95.20;;;;;;5036036;28;20083;-81
2022/08/21 00:41:36;;;;;;;14.50;6.38;;;18.10;95.20;;;;;;5033145;28;20036;-80
2022/08/21 00:44:03;;;;;;;9.82;6.10;;;18.10;95.10;;;;;;5027990;28;20087;-81
2022/08/21 00:46:30;;;;;;;7.43;5.63;;;18.10;95.10;;;;;;5030385;28;20025;-81
2022/08/21 00:48:56;;;;;;;9.60;6.03;;;18.10;95.20;;;;;;5033446;28;20033;-81
2022/08/21 00:51:53;;;;;;;9.57;6.28;;;18.00;95.30;;;;;;5036801;28;20021;-81
2022/08/21 00:54:24;;;;;;;15.95;6.28;;;18.00;95.10;;;;;;5026256;28;20038;-82
2022/08/21 00:56:55;;;;;;;10.88;5.80;;;18.00;95.20;;;;;;5021161;28;20076;-81
2022/08/21 00:59:23;;;;;;;10.68;5.93;;;18.00;95.30;;;;;;5015402;28;20057;-80
2022/08/21 01:01:49;;;;;;;11.48;6.00;;;17.90;95.20;;;;;;5032329;28;20029;-80
2022/08/21 01:04:16;;;;;;;12.82;5.88;;;17.90;95.30;;;;;;5030103;28;20037;-79
2022/08/21 01:06:42;;;;;;;10.32;5.82;;;17.90;95.30;;;;;;5027520;28;20055;-81
2022/08/21 01:09:08;;;;;;;8.68;6.10;;;17.90;95.40;;;;;;5029808;28;20348;-82
2022/08/21 01:11:35;;;;;;;10.15;6.38;;;17.80;95.40;;;;;;5028758;28;20056;-81
2022/08/21 01:14:02;;;;;;;10.18;6.85;;;17.80;95.40;;;;;;5030627;28;20612;-81
2022/08/21 01:16:28;;;;;;;10.30;5.72;;;17.80;95.50;;;;;;5039137;28;20029;-81
2022/08/21 01:18:55;;;;;;;11.07;6.00;;;17.70;95.50;;;;;;5047123;28;20033;-80
2022/08/21 01:21:27;;;;;;;9.50;6.43;;;17.70;95.60;;;;;;5026170;28;20026;-81
2022/08/21 01:23:54;;;;;;;13.02;6.55;;;17.70;95.60;;;;;;5030371;28;20081;-80
2022/08/21 01:26:24;;;;;;;10.95;5.43;;;17.70;95.70;;;;;;5025501;28;20028;-81
2022/08/21 01:28:59;;;;;;;13.90;6.57;;;17.70;95.70;;;;;;5030285;28;20024;-81
2022/08/21 01:31:28;;;;;;;11.68;6.63;;;17.70;95.70;;;;;;5047718;28;20070;-82
2022/08/21 01:33:55;;;;;;;12.52;6.05;;;17.70;95.80;;;;;;5047955;28;20025;-82
2022/08/21 01:36:22;;;;;;;14.23;6.40;;;17.70;95.70;;;;;;5040715;28;20036;-82
2022/08/21 01:38:48;;;;;;;10.43;5.82;;;17.60;95.80;;;;;;5047209;28;20115;-81
2022/08/21 01:41:14;;;;;;;11.80;6.22;;;17.60;95.80;;;;;;5037043;28;20037;-82
2022/08/21 01:43:42;;;;;;;9.15;6.32;;;17.60;95.70;;;;;;5041716;28;20047;-82
2022/08/21 01:46:08;;;;;;;12.40;6.13;;;17.60;95.80;;;;;;5034112;28;20041;-81
2022/08/21 01:48:35;;;;;;;14.73;6.43;;;17.60;95.90;;;;;;5035364;28;20052;-82
2022/08/21 01:51:01;;;;;;;9.43;6.82;;;17.50;95.90;;;;;;5040217;28;20138;-82
2022/08/21 01:53:27;;;;;;;11.05;6.55;;;17.50;95.90;;;;;;5037506;28;20486;-81
2022/08/21 01:55:52;;;;;;;10.15;6.38;;;17.50;96.00;;;;;;5033000;28;20096;-82
2022/08/21 01:58:18;;;;;;;11.55;6.43;;;17.50;96.00;;;;;;5036714;28;20492;-82
2022/08/21 02:00:44;;;;;;;11.38;7.05;;;17.50;96.00;;;;;;5051763;28;20465;-82
2022/08/21 02:03:10;;;;;;;11.43;6.50;;;17.50;96.00;;;;;;5044993;28;20026;-82
2022/08/21 02:05:36;;;;;;;12.70;6.90;;;17.50;96.00;;;;;;5036547;28;20490;-81
2022/08/21 02:08:02;;;;;;;8.68;5.15;;;17.40;96.10;;;;;;5032994;28;20479;-81
2022/08/21 02:10:31;;;;;;;7.65;5.80;;;17.40;96.20;;;;;;5024146;28;20025;-82
2022/08/21 02:12:59;;;;;;;8.75;6.25;;;17.40;96.20;;;;;;5051714;28;20037;-82
2022/08/21 02:15:26;;;;;;;13.10;6.18;;;17.40;96.10;;;;;;5038081;28;20037;-82
2022/08/21 02:17:55;;;;;;;11.43;5.85;;;17.40;96.20;;;;;;5036629;28;20067;-80
2022/08/21 02:20:36;;;;;;;11.20;6.53;;;17.30;96.30;;;;;;5036329;28;20103;-82
2022/08/21 02:23:03;;;;;;;14.32;6.45;;;17.30;96.30;;;;;;5051978;28;20065;-82
2022/08/21 02:25:30;;;;;;;16.17;7.38;;;17.30;96.30;;;;;;5027443;28;20057;-82
2022/08/21 02:27:56;;;;;;;15.80;7.18;;;17.30;96.40;;;;;;5031340;28;20030;-81
2022/08/21 02:30:31;;;;;;;15.05;7.40;;;17.20;96.50;;;;;;5030376;28;20096;-82
2022/08/21 02:32:57;;;;;;;12.57;6.47;;;17.20;96.50;;;;;;5032800;28;20036;-84
2022/08/21 02:35:24;;;;;;;11.73;6.60;;;17.20;96.60;;;;;;5025808;28;20032;-83
2022/08/21 02:37:51;;;;;;;11.65;7.20;;;17.20;96.70;;;;;;5026237;28;20430;-83
2022/08/21 02:40:21;;;;;;;13.40;6.75;;;17.20;96.60;;;;;;5031949;28;20079;-83
2022/08/21 02:42:47;;;;;;;9.70;6.97;;;17.20;96.70;;;;;;5031076;28;20118;-83
2022/08/21 02:45:13;;;;;;;8.43;6.00;;;17.20;96.60;;;;;;5037379;28;20037;-82
2022/08/21 02:47:40;;;;;;;12.32;8.13;;;17.10;96.60;;;;;;5028243;28;20022;-83
2022/08/21 02:50:07;;;;;;;10.88;6.75;;;17.10;96.60;;;;;;5027708;28;20147;-83
2022/08/21 02:52:34;;;;;;;9.82;6.60;;;17.10;96.60;;;;;;5024403;28;20044;-83
2022/08/21 02:55:00;;;;;;;10.30;6.75;;;17.10;96.60;;;;;;5033776;28;20052;-81
2022/08/21 02:57:26;;;;;;;12.20;7.05;;;17.10;96.70;;;;;;5022972;28;20115;-82
2022/08/21 02:59:52;;;;;;;14.13;7.13;;;17.00;96.70;;;;;;5021151;28;20376;-83
2022/08/21 03:02:17;;;;;;;13.00;7.60;;;17.10;96.70;;;;;;5028104;28;20048;-81
2022/08/21 03:04:43;;;;;;;12.63;6.43;;;17.00;96.80;;;;;;5031530;28;20505;-82
2022/08/21 03:07:09;;;;;;;9.23;6.10;;;17.00;96.80;;;;;;5033798;28;20035;-82
2022/08/21 03:09:35;;;;;;;12.38;7.18;;;16.90;96.80;;;;;;5029803;28;20034;-83
2022/08/21 03:12:01;;;;;;;9.43;6.70;;;16.90;96.80;;;;;;5030204;28;20036;-82
2022/08/21 03:14:27;;;;;;;10.23;7.30;;;16.90;96.80;;;;;;5031171;28;20486;-83
2022/08/21 03:16:52;;;;;;;12.07;6.65;;;16.90;96.90;;;;;;5036483;28;20039;-83
2022/08/21 03:19:18;;;;;;;14.43;6.93;;;16.90;96.80;;;;;;5034196;28;20032;-83
2022/08/21 03:21:44;;;;;;;11.85;6.95;;;16.90;96.80;;;;;;5031530;28;20032;-82
2022/08/21 03:24:10;;;;;;;11.65;6.40;;;16.90;96.80;;;;;;5025644;28;20034;-82
2022/08/21 03:26:36;;;;;;;14.00;6.72;;;16.90;97.10;;;;;;5024344;28;20018;-82
2022/08/21 03:29:07;;;;;;;11.48;6.50;;;16.80;96.70;;;;;;5034032;28;20420;-82
2022/08/21 03:31:33;;;;;;;12.02;6.93;;;16.80;96.90;;;;;;5030261;28;20022;-81
2022/08/21 03:33:59;;;;;;;13.30;8.48;;;16.80;96.80;;;;;;5026903;28;20029;-81
2022/08/21 03:36:25;;;;;;;14.30;8.60;;;16.80;96.90;;;;;;5051044;28;20033;-83
2022/08/21 03:38:51;;;;;;;14.63;7.82;;;16.80;97.00;;;;;;5036519;28;20093;-83
2022/08/21 03:41:17;;;;;;;14.60;8.13;;;16.70;97.10;;;;;;5039530;28;20053;-83
2022/08/21 03:43:42;;;;;;;13.10;7.40;;;16.70;97.00;;;;;;5033814;28;20084;-81
2022/08/21 03:46:08;;;;;;;12.38;7.70;;;16.70;97.00;;;;;;5032419;28;20034;-81
2022/08/21 03:48:36;;;;;;;14.20;7.75;;;16.70;97.00;;;;;;5032643;28;20022;-83
2022/08/21 03:51:02;;;;;;;16.65;8.23;;;16.70;97.20;;;;;;5028756;28;20038;-83
2022/08/21 03:53:30;;;;;;;12.38;7.15;;;16.70;97.10;;;;;;5040985;28;20031;-83
2022/08/21 03:55:56;;;;;;;15.05;7.88;;;16.70;97.10;;;;;;5028929;28;20033;-82
2022/08/21 03:58:25;;;;;;;12.85;7.55;;;16.70;97.20;;;;;;5038197;28;20033;-83
2022/08/21 04:00:55;;;;;;;14.18;7.78;;;16.70;97.20;;;;;;5030126;28;20039;-81
2022/08/21 04:03:21;;;;;;;17.02;8.52;;;16.70;97.10;;;;;;5041567;28;20477;-83
2022/08/21 04:05:47;;;;;;;13.18;7.93;;;16.60;97.20;;;;;;5034903;28;20317;-82
2022/08/21 04:08:14;;;;;;;12.40;8.15;;;16.70;97.20;;;;;;5036080;28;20017;-83
2022/08/21 04:10:46;;;;;;;14.07;8.20;;;16.60;97.20;;;;;;5036845;28;20028;-82
2022/08/21 04:13:11;;;;;;;14.20;8.30;;;16.60;97.30;;;;;;5047213;28;20568;-83
2022/08/21 04:15:38;;;;;;;12.25;7.75;;;16.70;97.30;;;;;;5040240;28;20083;-82
2022/08/21 04:18:05;;;;;;;16.75;9.43;;;16.60;97.30;;;;;;5039816;28;20026;-80
2022/08/21 04:20:31;;;;;;;18.30;8.55;;;16.60;97.30;;;;;;5045586;28;20767;-82
2022/08/21 04:22:57;;;;;;;14.43;8.25;;;16.60;97.20;;;;;;5042079;28;20025;-82
2022/08/21 04:25:25;;;;;;;11.10;7.43;;;16.60;97.30;;;;;;5046575;28;20119;-82
2022/08/21 04:27:51;;;;;;;17.88;9.13;;;16.60;97.30;;;;;;5050255;28;20033;-82
2022/08/21 04:30:17;;;;;;;15.30;8.18;;;16.60;97.30;;;;;;5043943;28;20025;-81
2022/08/21 04:32:50;;;;;;;15.98;9.10;;;16.60;97.50;;;;;;5044138;28;20074;-83
2022/08/21 04:35:21;;;;;;;20.90;8.25;;;16.50;97.50;;;;;;5041013;28;20030;-81
2022/08/21 04:37:48;;;;;;;11.45;7.78;;;16.50;97.40;;;;;;5027711;28;20059;-84
2022/08/21 04:40:15;;;;;;;14.95;7.75;;;16.50;97.50;;;;;;5045099;28;20076;-83
2022/08/21 04:42:49;;;;;;;13.43;8.10;;;16.50;97.50;;;;;;5046574;28;20016;-82
2022/08/21 04:45:33;;;;;;;16.08;8.10;;;16.40;97.50;;;;;;5054888;28;20045;-82
2022/08/21 04:48:04;;;;;;;12.07;7.78;;;16.40;97.50;;;;;;5028282;28;20516;-80
2022/08/21 04:50:56;;;;;;;16.20;8.98;;;16.40;97.40;;;;;;5056786;28;20120;-82
2022/08/21 04:53:26;;;;;;;14.38;7.55;;;16.40;97.30;;;;;;5040891;28;20124;-81
2022/08/21 04:55:54;;;;;;;11.80;7.45;;;16.30;97.40;;;;;;5035414;28;20026;-82
2022/08/21 04:58:22;;;;;;;10.70;7.38;;;16.40;97.50;;;;;;5046407;28;20497;-81
2022/08/21 05:00:48;;;;;;;13.35;7.60;;;16.30;97.50;;;;;;5037914;28;20465;-81
2022/08/21 05:03:16;;;;;;;13.48;7.70;;;16.30;97.50;;;;;;5040949;28;20031;-81
2022/08/21 05:05:43;;;;;;;10.95;8.18;;;16.30;97.50;;;;;;5043987;28;20029;-83
2022/08/21 05:08:13;;;;;;;14.50;7.18;;;16.30;97.50;;;;;;5040497;28;20508;-81
2022/08/21 05:10:38;;;;;;;12.93;7.63;;;16.30;97.50;;;;;;5039254;28;20097;-83
2022/08/21 05:13:06;;;;;;;12.18;6.93;;;16.20;97.50;;;;;;5036834;28;20076;-80
2022/08/21 05:15:32;;;;;;;15.18;8.30;;;16.30;97.60;;;;;;5069011;28;20021;-80
2022/08/21 05:17:58;;;;;;;15.25;7.65;;;16.30;97.70;;;;;;5056064;28;20618;-81
2022/08/21 05:20:24;;;;;;;13.00;7.95;;;16.30;97.70;;;;;;5035886;28;20041;-82
2022/08/21 05:22:50;;;;;;;12.60;8.57;;;16.30;97.90;;;;;;5042220;28;20068;-82
2022/08/21 05:25:16;;;;;;;13.50;7.97;;;16.30;97.90;;;;;;5043426;28;20033;-83
2022/08/21 05:27:42;;;;;;;12.15;7.43;;;16.40;98.00;;;;;;5044330;28;20543;-82
2022/08/21 05:30:10;;;;;;;13.23;7.55;;;16.40;97.90;;;;;;5035344;28;20030;-81
2022/08/21 05:32:36;;;;;;;14.70;8.75;;;16.40;97.90;;;;;;5047100;28;20064;-82
2022/08/21 05:35:04;;;;;;;15.40;8.15;;;16.40;97.90;;;;;;5064681;28;20002;-84
2022/08/21 05:37:30;;;;;;;13.35;7.75;;;16.40;97.90;;;;;;5022060;28;20057;-81
2022/08/21 05:39:56;;;;;;;15.27;8.30;;;16.40;98.00;;;;;;5033535;28;20038;-81
2022/08/21 05:42:21;;;;;;;12.48;8.00;;;16.40;98.00;;;;;;5048315;28;20032;-80
2022/08/21 05:44:47;;;;;;;22.17;8.55;;;16.50;98.00;;;;;;5033343;28;20045;-81
2022/08/21 05:47:13;;;;;;;13.98;8.45;;;16.50;98.00;;;;;;5034939;28;20091;-80
2022/08/21 05:49:39;;;;;;;13.63;8.05;;;16.60;98.00;;;;;;5035052;28;20022;-83
2022/08/21 05:52:05;;;;;;;13.75;8.13;;;16.60;97.90;;;;;;5036456;28;20030;-80
2022/08/21 05:54:31;;;;;;;14.20;9.02;;;16.60;97.90;;;;;;5038488;28;20026;-83
2022/08/21 05:56:57;;;;;;;14.05;8.55;;;16.70;97.80;;;;;;5036129;28;20378;-81
2022/08/21 05:59:23;;;;;;;14.30;8.93;;;16.70;97.80;;;;;;5033217;28;20029;-80
2022/08/21 06:01:50;;;;;;;13.38;8.85;;;16.80;97.70;;;;;;5050276;28;20021;-80
2022/08/21 06:04:16;;;;;;;20.25;8.45;;;16.80;97.70;;;;;;5038257;28;20029;-82
2022/08/21 06:06:42;;;;;;;12.82;9.18;;;16.80;97.70;;;;;;5033861;28;20025;-80
2022/08/21 06:09:08;;;;;;;15.50;8.35;;;16.80;97.60;;;;;;5032638;28;20029;-83
2022/08/21 06:11:34;;;;;;;9.75;7.50;;;16.90;97.60;;;;;;5042937;28;20055;-81
2022/08/21 06:14:00;;;;;;;16.92;8.13;;;16.90;97.60;;;;;;5046044;28;20030;-82
2022/08/21 06:16:26;;;;;;;21.10;8.07;;;17.00;97.70;;;;;;5030131;28;20083;-81
2022/08/21 06:18:52;;;;;;;12.05;7.80;;;17.00;97.70;;;;;;5044608;28;20021;-81
2022/08/21 06:21:21;;;;;;;15.07;8.63;;;17.10;97.70;;;;;;5040665;28;20044;-81
2022/08/21 06:23:47;;;;;;;13.25;8.50;;;17.10;97.70;;;;;;5042423;28;20020;-82
2022/08/21 06:26:14;;;;;;;14.95;8.65;;;17.10;97.70;;;;;;5055045;28;20038;-84
2022/08/21 06:28:40;;;;;;;13.18;8.40;;;17.20;97.70;;;;;;5046133;28;20384;-80
2022/08/21 06:31:17;;;;;;;17.42;8.25;;;17.20;97.60;;;;;;5046316;28;20021;-83
2022/08/21 06:33:43;;;;;;;13.98;8.93;;;17.20;97.70;;;;;;5035789;28;20090;-81
2022/08/21 06:36:09;;;;;;;13.80;8.25;;;17.20;97.70;;;;;;5038293;28;20041;-81
2022/08/21 06:38:36;;;;;;;23.23;8.75;;;17.20;97.90;;;;;;5043205;28;20025;-82
2022/08/21 06:41:02;;;;;;;14.98;8.63;;;17.00;98.70;;;;;;5044911;28;20040;-82
2022/08/21 06:43:28;;;;;;;13.95;8.93;;;17.00;99.10;;;;;;5040360;28;20048;-81
2022/08/21 06:45:54;;;;;;;18.33;10.18;;;16.90;98.90;;;;;;5037899;28;20025;-83
2022/08/21 06:48:20;;;;;;;16.75;9.90;;;16.90;98.80;;;;;;5042165;28;20093;-80
2022/08/21 06:50:47;;;;;;;19.20;11.40;;;16.80;98.90;;;;;;5043809;28;20022;-82
2022/08/21 06:53:16;;;;;;;18.45;10.32;;;16.90;99.00;;;;;;5039124;28;20024;-82
2022/08/21 06:55:42;;;;;;;18.60;10.10;;;16.80;98.90;;;;;;5042292;28;20579;-81
2022/08/21 06:58:09;;;;;;;22.38;10.45;;;16.80;99.30;;;;;;5038699;28;20064;-81
2022/08/21 07:00:35;;;;;;;14.82;10.40;;;16.80;99.30;;;;;;5040417;28;20026;-82
2022/08/21 07:03:01;;;;;;;17.60;9.70;;;16.90;99.20;;;;;;5035709;28;20119;-83
2022/08/21 07:05:29;;;;;;;17.50;10.02;;;17.10;98.90;;;;;;5033985;28;20429;-83
2022/08/21 07:07:56;;;;;;;16.58;10.10;;;17.00;99.30;;;;;;5036758;28;20025;-80
2022/08/21 07:10:23;;;;;;;18.65;10.02;;;17.30;98.80;;;;;;5046063;28;20047;-80
2022/08/21 07:12:50;;;;;;;14.02;9.95;;;17.30;99.00;;;;;;5054225;28;20022;-81
2022/08/21 07:15:17;;;;;;;16.20;9.77;;;17.30;98.80;;;;;;5041693;28;20032;-79
2022/08/21 07:17:42;;;;;;;17.75;10.23;;;17.30;98.50;;;;;;5037473;28;20025;-79
2022/08/21 07:20:09;;;;;;;20.02;10.25;;;17.40;98.90;;;;;;5034254;28;20045;-80
2022/08/21 07:22:37;;;;;;;17.05;9.38;;;17.30;99.30;;;;;;5058628;28;20017;-81
2022/08/21 07:25:04;;;;;;;25.48;8.98;;;17.40;99.50;;;;;;5042681;28;20040;-79
2022/08/21 07:27:31;;;;;;;21.10;8.90;;;17.50;99.00;;;;;;5032143;28;20483;-81
2022/08/21 07:29:57;;;;;;;20.65;8.95;;;17.70;99.00;;;;;;5040847;28;20040;-80
2022/08/21 07:32:23;;;;;;;19.33;10.43;;;17.70;98.60;;;;;;5039714;28;20024;-82
2022/08/21 07:34:49;;;;;;;15.38;9.00;;;17.80;98.70;;;;;;5033340;28;20109;-81
2022/08/21 07:37:15;;;;;;;14.30;8.55;;;18.00;98.40;;;;;;5041448;28;20079;-82
2022/08/21 07:39:41;;;;;;;17.23;8.10;;;18.10;98.40;;;;;;5042547;28;20030;-80
2022/08/21 07:42:07;;;;;;;14.40;9.02;;;18.20;97.90;;;;;;5039360;28;20033;-80
2022/08/21 07:44:34;;;;;;;16.00;7.30;;;18.30;97.80;;;;;;5037365;28;20137;-81
2022/08/21 07:47:01;;;;;;;14.88;7.65;;;18.40;97.90;;;;;;5040541;28;20410;-80
2022/08/21 07:49:27;;;;;;;13.50;7.63;;;18.60;97.40;;;;;;5046488;28;20184;-80
2022/08/21 07:51:53;;;;;;;15.35;7.35;;;18.60;97.40;;;;;;5046591;28;20034;-79
2022/08/21 07:54:19;;;;;;;18.77;8.20;;;18.70;97.50;;;;;;5048432;28;20083;-79
2022/08/21 07:56:45;;;;;;;14.73;6.82;;;18.70;96.90;;;;;;5048551;28;20057;-81
2022/08/21 07:59:12;;;;;;;15.80;7.90;;;18.80;96.60;;;;;;5042943;28;20063;-80
2022/08/21 08:01:38;;;;;;;15.48;7.22;;;18.90;96.20;;;;;;5042431;28;20028;-80
2022/08/21 08:04:04;;;;;;;13.70;7.03;;;19.00;96.50;;;;;;5048358;28;20044;-82
2022/08/21 08:06:30;;;;;;;15.30;7.43;;;19.10;96.20;;;;;;5042129;28;20026;-82
2022/08/21 08:08:56;;;;;;;16.08;6.72;;;19.10;95.80;;;;;;5043584;28;20021;-82
2022/08/21 08:11:22;;;;;;;16.25;7.65;;;19.10;95.80;;;;;;5050045;28;20028;-82
2022/08/21 08:13:51;;;;;;;17.05;7.00;;;19.10;96.20;;;;;;5038073;28;20036;-80
2022/08/21 08:16:17;;;;;;;15.15;6.70;;;19.20;96.10;;;;;;5033120;28;20025;-81
2022/08/21 08:18:44;;;;;;;12.48;7.00;;;19.20;95.50;;;;;;5040457;28;20393;-81
2022/08/21 08:21:12;;;;;;;19.02;6.93;;;19.20;95.70;;;;;;5050458;28;20032;-81
2022/08/21 08:23:38;;;;;;;14.85;6.13;;;19.30;95.50;;;;;;5059767;28;20055;-81
2022/08/21 08:26:05;;;;;;;17.80;6.30;;;19.30;95.30;;;;;;5056350;28;20520;-82
2022/08/21 08:28:32;;;;;;;9.63;4.10;;;19.40;95.20;;;;;;5045584;28;20037;-82
2022/08/21 08:31:00;;;;;;;18.85;4.55;;;19.50;94.60;;;;;;5051325;28;20025;-81
2022/08/21 08:33:27;;;;;;;10.90;4.68;;;19.60;94.10;;;;;;5050539;28;20478;-82
2022/08/21 08:35:53;;;;;;;7.82;3.97;;;19.60;94.20;;;;;;5047848;28;20059;-80
2022/08/21 08:38:22;;;;;;;11.65;4.45;;;19.70;94.20;;;;;;5059551;28;20052;-81
2022/08/21 08:40:59;;;;;;;10.95;5.47;;;19.80;93.80;;;;;;5050583;28;20048;-82
2022/08/21 08:43:26;;;;;;;8.70;4.07;;;19.80;93.80;;;;;;5047186;28;20030;-79
2022/08/21 08:45:55;;;;;;;14.73;4.20;;;19.80;93.70;;;;;;5037176;28;20030;-82
2022/08/21 08:48:47;;;;;;;11.70;4.13;;;19.90;93.60;;;;;;5034769;28;20032;-82
2022/08/21 08:51:26;;;;;;;12.90;4.40;;;19.90;93.00;;;;;;5039892;28;20037;-82
2022/08/21 08:54:02;;;;;;;9.18;3.47;;;19.90;92.20;;;;;;5035945;28;20108;-83
2022/08/21 08:56:32;;;;;;;10.35;3.45;;;19.90;92.70;;;;;;5034458;28;20378;-82
2022/08/21 08:59:06;;;;;;;17.77;4.38;;;19.90;92.80;;;;;;5042248;28;20278;-81
2022/08/21 09:01:32;;;;;;;14.75;3.53;;;20.00;93.00;;;;;;5032325;28;20053;-82
2022/08/21 09:03:58;;;;;;;16.20;4.95;;;20.10;92.90;;;;;;5039355;28;20036;-82
2022/08/21 09:06:42;;;;;;;9.00;3.22;;;20.20;92.70;;;;;;5036326;28;20026;-82
2022/08/21 09:09:18;;;;;;;13.07;3.78;;;20.10;92.00;;;;;;5030043;28;20564;-82
2022/08/21 09:12:02;;;;;;;12.25;4.22;;;20.20;92.00;;;;;;5031486;28;20087;-82
2022/08/21 09:14:43;;;;;;;11.82;3.50;;;20.20;92.10;;;;;;5043943;28;20191;-82
2022/08/21 09:17:09;;;;;;;17.00;4.68;;;20.20;92.10;;;;;;5032921;28;20085;-82
2022/08/21 09:20:05;;;;;;;12.25;3.50;;;20.20;92.20;;;;;;5028445;28;20022;-82
2022/08/21 09:22:36;;;;;;;8.18;3.67;;;20.30;92.10;;;;;;5042771;28;20044;-82
2022/08/21 09:25:18;;;;;;;9.60;3.78;;;20.40;91.80;;;;;;5019142;28;20065;-82
2022/08/21 09:27:44;;;;;;;12.75;4.60;;;20.40;91.90;;;;;;5030136;28;20095;-80
2022/08/21 09:30:11;;;;;;;9.63;3.50;;;20.40;91.20;;;;;;5031169;28;20017;-82
2022/08/21 09:32:41;;;;;;;5.97;2.58;;;20.50;91.40;;;;;;5023231;28;20544;-80
2022/08/21 09:35:07;;;;;;;13.60;3.97;;;20.50;91.30;;;;;;5035738;28;20026;-81
2022/08/21 09:37:50;;;;;;;8.15;2.92;;;20.50;90.80;;;;;;5033140;28;20034;-81
2022/08/21 09:40:41;;;;;;;10.88;3.05;;;20.60;91.10;;;;;;5039388;28;20025;-79
2022/08/21 09:43:24;;;;;;;11.88;3.00;;;20.60;91.00;;;;;;5022752;28;20025;-79
2022/08/21 09:46:04;;;;;;;12.80;4.15;;;20.70;90.70;;;;;;5043746;28;20418;-80
2022/08/21 09:48:42;;;;;;;12.88;3.60;;;20.70;90.40;;;;;;5026313;28;20034;-80
2022/08/21 09:51:15;;;;;;;12.35;3.65;;;20.70;90.60;;;;;;5033613;28;20108;-79
2022/08/21 09:53:50;;;;;;;11.27;3.83;;;20.70;90.90;;;;;;5034467;28;20021;-79
2022/08/21 09:59:19;;;;;;;17.65;5.63;;;20.90;90.50;;;;;;5027682;28;20041;-80
2022/08/21 10:01:51;;;;;;;10.23;3.42;;;21.00;89.70;;;;;;5029773;28;20030;-79
2022/08/21 10:04:27;;;;;;;11.25;3.13;;;21.00;88.70;;;;;;5039236;28;20124;-80
2022/08/21 10:06:54;;;;;;;13.55;3.50;;;21.10;89.20;;;;;;5037212;28;20033;-81
2022/08/21 10:09:20;;;;;;;8.82;3.78;;;21.10;89.70;;;;;;5028123;28;20037;-79
2022/08/21 10:12:06;;;;;;;10.18;2.80;;;21.10;89.60;;;;;;5025254;28;20022;-80
2022/08/21 10:15:03;;;;;;;14.32;3.28;;;21.10;89.70;;;;;;5008542;28;20037;-80
2022/08/21 10:17:52;;;;;;;10.90;3.58;;;21.10;89.70;;;;;;5053455;28;20500;-79
2022/08/21 10:20:28;;;;;;;13.10;3.08;;;21.20;88.80;;;;;;5029538;28;21417;-80
2022/08/21 10:23:20;;;;;;;10.30;3.25;;;21.30;89.00;;;;;;5043519;28;20029;-80
2022/08/21 10:26:05;;;;;;;9.00;2.58;;;21.30;87.80;;;;;;5039131;28;20135;-80
2022/08/21 10:28:49;;;;;;;8.93;3.10;;;21.40;87.80;;;;;;5018047;28;20055;-80
2022/08/21 10:31:32;;;;;;;10.97;2.70;;;21.40;87.90;;;;;;5028783;28;20401;-80
2022/08/21 10:34:24;;;;;;;10.07;2.53;;;21.60;88.20;;;;;;5037965;28;20481;-81
2022/08/21 10:37:01;;;;;;;7.90;2.38;;;21.60;87.70;;;;;;5045774;28;20030;-80
2022/08/21 10:40:06;;;;;;;12.10;3.00;;;21.70;87.30;;;;;;5024833;28;20029;-80
2022/08/21 10:42:32;;;;;;;;;;;21.80;87.60;;;;;;5032146;28;20029;-80
2022/08/21 10:45:35;;;;;;;8.77;3.03;;;21.70;87.10;;;;;;5036037;28;20303;-81
2022/08/21 10:48:06;;;;;;;9.82;2.65;;;21.80;87.60;;;;;;5031114;28;20400;-81
2022/08/21 10:50:50;;;;;;;10.43;3.13;;;21.80;86.30;;;;;;5034894;28;20045;-81
2022/08/21 10:53:18;;;;;;;8.75;2.33;;;21.90;86.70;;;;;;5054599;28;20031;-77
2022/08/21 10:56:02;;;;;;;7.30;2.33;;;21.80;87.00;;;;;;5022222;28;20620;-77
2022/08/21 10:58:39;;;;;;;6.90;2.67;;;21.70;87.70;;;;;;5032330;28;20029;-77
2022/08/21 11:01:39;;;;;;;8.75;3.00;;;21.50;88.40;;;;;;5030343;28;20061;-77
2022/08/21 11:04:23;;;;;;;10.32;4.22;;;21.30;89.00;;;;;;5044468;28;20443;-77
2022/08/21 11:06:51;;;;;;;;;;;21.20;89.70;;;;;;5040639;28;20064;-77
2022/08/21 11:09:23;;;;;;;5.22;2.70;;;21.00;90.00;;;;;;5026125;28;19960;-77
2022/08/21 11:12:05;;;;;;;8.68;3.40;;;20.90;90.30;;;;;;5027358;28;20032;-76
2022/08/21 11:14:53;;;;;;;9.95;3.22;;;20.80;90.40;;;;;;5034765;28;20017;-76
2022/08/21 11:17:32;;;;;;;8.45;3.50;;;20.70;90.60;;;;;;5025020;28;20022;-76
2022/08/21 11:20:43;;;;;;;8.85;3.08;;;20.60;90.70;;;;;;5028789;28;20049;-76
2022/08/21 11:23:16;;;;;;;10.82;3.78;;;20.60;90.90;;;;;;5006404;28;20116;-76
2022/08/21 11:25:49;;;;;;;12.17;3.47;;;20.50;91.00;;;;;;5033066;28;20559;-76
2022/08/21 11:28:28;;;;;;;11.10;3.58;;;20.40;91.10;;;;;;5041644;28;20288;-76
2022/08/21 11:31:06;;;;;;;6.13;2.83;;;20.40;91.20;;;;;;5027612;28;20482;-76
2022/08/21 11:33:53;;;;;;;7.38;3.55;;;20.40;91.20;;;;;;5039183;28;20022;-76
2022/08/21 11:36:29;;;;;;;10.10;4.13;;;20.30;91.30;;;;;;5037886;28;20029;-76
2022/08/21 11:39:01;;;;;;;7.57;3.60;;;20.30;91.40;;;;;;5036690;28;20061;-76
2022/08/21 11:41:34;;;;;;;9.70;3.40;;;20.30;91.40;;;;;;5029371;28;20094;-76
2022/08/21 11:44:10;;;;;;;9.85;3.38;;;20.30;91.50;;;;;;5028460;28;20080;-76
2022/08/21 11:46:59;;;;;;;7.75;4.18;;;20.30;91.60;;;;;;5026884;28;20028;-76
2022/08/21 11:49:43;;;;;;;5.20;3.20;;;20.30;91.60;;;;;;5030731;28;20058;-77
2022/08/21 11:52:28;;;;;;;;;;;20.30;91.60;;;;;;5030492;28;20036;-76
2022/08/21 11:55:00;;;;;;;8.40;3.50;;;20.20;91.60;;;;;;5026667;28;19916;-76
2022/08/21 11:57:37;;;;;;;6.35;3.08;;;20.20;91.70;;;;;;5034627;28;20548;-76
2022/08/21 12:00:04;;;;;;;7.88;4.05;;;20.20;91.70;;;;;;5031541;28;20106;-76
2022/08/21 12:02:39;;;;;;;6.88;3.35;;;20.20;91.70;;;;;;5026655;28;20494;-76
2022/08/21 12:05:21;;;;;;;5.85;3.20;;;20.20;91.70;;;;;;5033524;28;20029;-76
2022/08/21 12:07:47;;;;;;;5.40;3.00;;;20.20;91.70;;;;;;5029054;28;20037;-76
2022/08/21 12:10:20;;;;;;;6.40;3.50;;;20.20;92.00;;;;;;5032741;28;20029;-76
2022/08/21 12:12:47;;;;;;;7.10;4.32;;;20.20;91.70;;;;;;5033738;28;20061;-76
2022/08/21 12:15:22;;;;;;;7.70;3.40;;;20.20;91.70;;;;;;5033340;28;20033;-76
2022/08/21 12:17:58;;;;;;;8.57;3.58;;;20.20;91.70;;;;;;5037118;28;20036;-76
2022/08/21 12:20:29;;;;;;;8.68;3.83;;;20.20;91.70;;;;;;5041461;28;20033;-76
2022/08/21 12:23:16;;;;;;;6.18;3.50;;;20.20;91.70;;;;;;5026245;28;20029;-76
2022/08/21 12:26:17;;;;;;;8.25;3.47;;;20.20;91.80;;;;;;5027351;28;20124;-76
2022/08/21 12:28:43;;;;;;;6.45;3.53;;;20.20;91.80;;;;;;5025245;28;20371;-76
2022/08/21 12:31:24;;;;;;;8.38;3.10;;;20.20;91.80;;;;;;5030152;28;20041;-75
2022/08/21 12:33:57;;;;;;;6.53;3.15;;;20.20;91.70;;;;;;5027955;28;20138;-76
2022/08/21 12:36:30;;;;;;;6.03;3.33;;;20.20;91.70;;;;;;5036165;28;20029;-76
2022/08/21 12:39:10;;;;;;;4.63;3.20;;;20.20;91.70;;;;;;5030329;28;20040;-76
2022/08/21 12:41:48;;;;;;;6.47;3.47;;;20.20;91.60;;;;;;5033777;28;20324;-77
2022/08/21 12:44:24;;;;;;;4.97;2.85;;;20.20;91.60;;;;;;5038134;28;20116;-76
2022/08/21 12:46:59;;;;;;;6.35;4.25;;;20.20;91.70;;;;;;5025715;28;20021;-76
2022/08/21 12:49:31;;;;;;;8.13;3.75;;;20.20;91.70;;;;;;5024206;28;20022;-77
2022/08/21 12:52:24;;;;;;;6.78;3.10;;;20.30;91.70;;;;;;5029760;28;20079;-78
2022/08/21 12:54:50;;;;;;;6.07;3.20;;;20.30;91.60;;;;;;5027875;28;20017;-76
2022/08/21 12:57:25;;;;;;;6.28;3.03;;;20.30;91.70;;;;;;5046412;28;20421;-76
2022/08/21 13:00:00;;;;;;;6.65;3.13;;;20.30;91.70;;;;;;5037920;28;20033;-76